Time;durP1;ratioP1;P1;durP2;ratioP2;P2;SDS_P1;SDS_P2;PMS_P1;PMS_P2;Temp;Humidity;BMP_temperature;BMP_pressure;BME280_temperature;BME280_humidity;BME280_pressure;Samples;Min_cycle;Max_cycle;Signal;HPM_P1;HPM_P2
2024/02/12 00:00:58;;;;;;;5.70;4.03;;;10.10;99.90;;;;;;5054265;28;20442;-56
2024/02/12 00:03:26;;;;;;;7.37;3.87;;;10.10;99.90;;;;;;5054238;28;20441;-56
2024/02/12 00:05:53;;;;;;;5.47;4.00;;;10.10;99.90;;;;;;5054132;28;20485;-56
2024/02/12 00:08:20;;;;;;;6.10;4.03;;;10.10;99.90;;;;;;5054096;28;20855;-55
2024/02/12 00:10:49;;;;;;;4.93;4.23;;;10.20;99.90;;;;;;5053648;28;20445;-56
2024/02/12 00:13:17;;;;;;;5.30;4.20;;;10.20;99.90;;;;;;5053971;28;20450;-56
2024/02/12 00:15:45;;;;;;;7.60;6.03;;;10.20;99.90;;;;;;5053633;28;21057;-56
2024/02/12 00:18:11;;;;;;;6.87;5.67;;;10.20;99.90;;;;;;5053462;28;20921;-56
2024/02/12 00:20:41;;;;;;;5.57;4.97;;;10.20;99.90;;;;;;5053821;28;20445;-56
2024/02/12 00:23:08;;;;;;;7.10;5.27;;;10.20;99.90;;;;;;5053470;28;20449;-56
2024/02/12 00:25:35;;;;;;;8.47;6.43;;;10.20;99.90;;;;;;5053633;28;20485;-56
2024/02/12 00:28:02;;;;;;;6.43;5.27;;;10.30;99.90;;;;;;5053630;28;20888;-56
2024/02/12 00:30:33;;;;;;;7.60;5.30;;;10.30;99.90;;;;;;5053712;28;20543;-56
2024/02/12 00:33:00;;;;;;;7.70;5.10;;;10.30;99.90;;;;;;5053381;28;20959;-56
2024/02/12 00:35:27;;;;;;;8.07;6.00;;;10.30;99.90;;;;;;5053264;28;20444;-56
2024/02/12 00:37:55;;;;;;;8.40;5.77;;;10.30;99.90;;;;;;5053439;28;20465;-55
2024/02/12 00:40:22;;;;;;;7.00;5.53;;;10.30;99.90;;;;;;5052987;28;20448;-56
2024/02/12 00:42:49;;;;;;;8.83;5.60;;;10.20;99.90;;;;;;5053405;28;20442;-56
2024/02/12 00:45:17;;;;;;;5.50;5.00;;;10.20;99.90;;;;;;5053185;28;20490;-55
2024/02/12 00:47:44;;;;;;;6.10;4.93;;;10.20;99.90;;;;;;5053318;28;20834;-55
2024/02/12 00:50:11;;;;;;;8.43;6.30;;;10.20;99.90;;;;;;5053276;28;20551;-56
2024/02/12 00:52:38;;;;;;;9.57;7.57;;;10.20;99.90;;;;;;5053214;28;20960;-54
2024/02/12 00:55:08;;;;;;;9.57;8.10;;;10.10;99.90;;;;;;5052485;28;20552;-56
2024/02/12 00:57:35;;;;;;;15.90;9.40;;;10.10;99.90;;;;;;5052340;28;20908;-56
2024/02/12 01:00:04;;;;;;;15.50;11.70;;;10.10;99.90;;;;;;5053148;28;20448;-55
2024/02/12 01:02:33;;;;;;;16.23;12.37;;;10.10;99.90;;;;;;5052934;28;20959;-55
2024/02/12 01:05:00;;;;;;;16.00;11.30;;;10.00;99.90;;;;;;5053019;28;20531;-55
2024/02/12 01:07:27;;;;;;;15.90;11.87;;;10.00;99.90;;;;;;5053091;28;20522;-55
2024/02/12 01:09:54;;;;;;;21.47;12.27;;;10.00;99.90;;;;;;5052803;28;20453;-55
2024/02/12 01:12:23;;;;;;;15.70;12.67;;;9.90;99.90;;;;;;5053142;28;20477;-55
2024/02/12 01:14:51;;;;;;;15.57;11.97;;;9.90;99.90;;;;;;5053090;28;20868;-55
2024/02/12 01:17:17;;;;;;;16.47;12.40;;;9.90;99.90;;;;;;5053095;28;20461;-55
2024/02/12 01:19:45;;;;;;;20.70;13.07;;;9.90;99.90;;;;;;5053019;28;20442;-55
2024/02/12 01:22:12;;;;;;;18.33;13.83;;;9.90;99.90;;;;;;5053140;28;20445;-55
2024/02/12 01:24:39;;;;;;;17.50;12.53;;;9.90;99.90;;;;;;5052597;28;21029;-55
2024/02/12 01:27:06;;;;;;;17.73;12.70;;;9.90;99.90;;;;;;5052613;28;20833;-55
2024/02/12 01:29:37;;;;;;;25.30;14.37;;;10.00;99.90;;;;;;5053010;28;20536;-55
2024/02/12 01:32:06;;;;;;;26.37;15.37;;;9.90;99.90;;;;;;5053030;28;20485;-55
2024/02/12 01:34:34;;;;;;;20.07;13.93;;;9.90;99.90;;;;;;5052928;28;20468;-55
2024/02/12 01:37:01;;;;;;;20.80;14.50;;;9.90;99.90;;;;;;5052955;28;20473;-55
2024/02/12 01:39:28;;;;;;;20.93;14.37;;;10.00;99.90;;;;;;5052656;28;20951;-56
2024/02/12 01:41:55;;;;;;;18.23;15.77;;;10.00;99.90;;;;;;5052858;28;20450;-55
2024/02/12 01:44:21;;;;;;;21.97;15.77;;;10.00;99.90;;;;;;5052680;28;20448;-55
2024/02/12 01:46:50;;;;;;;20.67;14.80;;;9.90;99.90;;;;;;5052757;28;20437;-55
2024/02/12 01:49:19;;;;;;;17.93;15.53;;;9.90;99.90;;;;;;5052790;28;20443;-54
2024/02/12 01:51:49;;;;;;;20.03;15.20;;;9.90;99.90;;;;;;5052748;28;20457;-55
2024/02/12 01:54:17;;;;;;;20.43;15.70;;;9.90;99.90;;;;;;5055195;28;20461;-55
2024/02/12 01:56:46;;;;;;;19.90;14.83;;;9.90;99.90;;;;;;5056513;28;20448;-55
2024/02/12 01:59:17;;;;;;;23.57;16.10;;;9.90;99.90;;;;;;5056199;28;20452;-55
2024/02/12 02:01:45;;;;;;;22.50;15.80;;;9.90;99.90;;;;;;5056344;28;20425;-55
2024/02/12 02:04:13;;;;;;;25.03;16.67;;;9.90;99.90;;;;;;5056578;28;20461;-55
2024/02/12 02:06:40;;;;;;;23.80;18.50;;;9.90;99.90;;;;;;5056740;28;20474;-55
2024/02/12 02:09:07;;;;;;;26.80;18.57;;;9.90;99.90;;;;;;5056126;28;20445;-54
2024/02/12 02:11:34;;;;;;;28.30;16.70;;;9.80;99.90;;;;;;5056544;28;20446;-56
2024/02/12 02:14:02;;;;;;;26.37;17.43;;;9.80;99.90;;;;;;5056182;28;20446;-54
2024/02/12 02:16:30;;;;;;;20.87;17.10;;;9.80;99.90;;;;;;5057432;28;20451;-54
2024/02/12 02:18:57;;;;;;;28.43;18.60;;;9.80;99.90;;;;;;5057167;28;20499;-55
2024/02/12 02:21:26;;;;;;;25.67;17.30;;;9.80;99.90;;;;;;5056713;28;20438;-55
2024/02/12 02:23:59;;;;;;;30.63;18.20;;;9.80;99.90;;;;;;5056758;28;20449;-55
2024/02/12 02:26:27;;;;;;;28.63;19.40;;;9.80;99.90;;;;;;5056419;28;20537;-55
2024/02/12 02:28:56;;;;;;;27.63;18.70;;;9.80;99.90;;;;;;5056115;28;21070;-55
2024/02/12 02:31:23;;;;;;;28.83;20.83;;;9.80;99.90;;;;;;5056081;28;20484;-55
2024/02/12 02:33:49;;;;;;;28.93;18.97;;;9.80;99.90;;;;;;5056097;28;20449;-55
2024/02/12 02:36:16;;;;;;;28.93;20.00;;;9.80;99.90;;;;;;5055328;28;20914;-54
2024/02/12 02:38:43;;;;;;;29.50;20.37;;;9.80;99.90;;;;;;5055960;28;20470;-55
2024/02/12 02:41:11;;;;;;;31.07;21.43;;;9.80;99.90;;;;;;5055852;28;20442;-55
2024/02/12 02:43:39;;;;;;;29.30;21.90;;;9.80;99.90;;;;;;5055806;28;20452;-55
2024/02/12 02:46:06;;;;;;;30.53;20.50;;;9.80;99.90;;;;;;5055612;28;20556;-55
2024/02/12 02:48:33;;;;;;;31.93;20.60;;;9.80;99.90;;;;;;5055600;28;20556;-55
2024/02/12 02:51:00;;;;;;;24.43;19.83;;;9.80;99.90;;;;;;5055665;28;20457;-55
2024/02/12 02:53:27;;;;;;;31.67;20.53;;;9.80;99.90;;;;;;5055387;28;20456;-55
2024/02/12 02:55:53;;;;;;;27.57;20.00;;;9.90;99.90;;;;;;5055216;28;20823;-55
2024/02/12 02:58:21;;;;;;;31.67;20.70;;;9.90;99.90;;;;;;5055396;28;20462;-55
2024/02/12 03:00:48;;;;;;;33.13;21.77;;;9.90;99.90;;;;;;5055360;28;20438;-55
2024/02/12 03:03:16;;;;;;;29.23;20.90;;;9.90;99.90;;;;;;5055007;28;20438;-55
2024/02/12 03:05:43;;;;;;;28.30;20.80;;;9.80;99.90;;;;;;5054761;28;20485;-55
2024/02/12 03:08:11;;;;;;;30.57;21.57;;;9.90;99.90;;;;;;5055203;28;20476;-55
2024/02/12 03:10:38;;;;;;;31.53;22.20;;;9.80;99.90;;;;;;5055183;28;20445;-55
2024/02/12 03:13:05;;;;;;;31.17;21.87;;;9.80;99.90;;;;;;5055097;28;20442;-55
2024/02/12 03:15:35;;;;;;;29.93;21.93;;;9.80;99.90;;;;;;5054973;28;20450;-55
2024/02/12 03:18:02;;;;;;;30.50;20.97;;;9.80;99.90;;;;;;5054993;28;20465;-55
2024/02/12 03:20:29;;;;;;;31.77;22.70;;;9.80;99.90;;;;;;5055061;28;20473;-55
2024/02/12 03:22:55;;;;;;;31.63;21.10;;;9.80;99.90;;;;;;5055591;28;20452;-55
2024/02/12 03:25:22;;;;;;;27.23;20.30;;;9.80;99.90;;;;;;5055000;28;20477;-55
2024/02/12 03:27:49;;;;;;;29.63;21.17;;;9.80;99.90;;;;;;5054882;28;20461;-55
2024/02/12 03:30:15;;;;;;;31.70;22.40;;;9.70;99.90;;;;;;5054808;28;20460;-55
2024/02/12 03:32:43;;;;;;;33.97;23.67;;;9.70;99.90;;;;;;5054664;28;20481;-54
2024/02/12 03:35:10;;;;;;;33.13;23.10;;;9.70;99.90;;;;;;5055013;28;20529;-55
2024/02/12 03:37:37;;;;;;;34.03;23.57;;;9.70;99.90;;;;;;5054741;28;20469;-55
2024/02/12 03:40:10;;;;;;;32.30;23.57;;;9.70;99.90;;;;;;5054888;28;20445;-55
2024/02/12 03:42:36;;;;;;;34.70;24.50;;;9.70;99.90;;;;;;5055326;28;20520;-55
2024/02/12 03:45:05;;;;;;;34.33;22.60;;;9.70;99.90;;;;;;5055069;28;20541;-56
2024/02/12 03:47:38;;;;;;;35.07;22.80;;;9.70;99.90;;;;;;5054469;28;20976;-55
2024/02/12 04:01:17;;;;;;;32.57;22.17;;;9.70;99.90;;;;;;5054992;28;20433;-55
2024/02/12 04:03:43;;;;;;;32.40;21.13;;;9.70;99.90;;;;;;5055744;28;20445;-55
2024/02/12 04:06:12;;;;;;;28.73;21.57;;;9.70;99.90;;;;;;5054697;28;20488;-55
2024/02/12 04:08:41;;;;;;;29.73;21.30;;;9.70;99.90;;;;;;5054309;28;20464;-55
2024/02/12 04:11:08;;;;;;;29.97;20.90;;;9.80;99.90;;;;;;5054892;28;20452;-55
2024/02/12 04:13:35;;;;;;;31.47;20.80;;;9.70;99.90;;;;;;5055865;28;20453;-55
2024/02/12 04:16:04;;;;;;;28.17;20.30;;;9.70;99.90;;;;;;5055250;28;20474;-55
2024/02/12 04:18:31;;;;;;;29.03;20.20;;;9.60;99.90;;;;;;5055713;28;20531;-55
2024/02/12 04:20:59;;;;;;;30.60;20.70;;;9.70;99.90;;;;;;5054969;28;20450;-55
2024/02/12 04:23:27;;;;;;;30.80;20.67;;;9.60;99.90;;;;;;5056362;28;20450;-55
2024/02/12 04:25:55;;;;;;;37.50;21.67;;;9.60;99.90;;;;;;5056707;28;20478;-55
2024/02/12 04:28:22;;;;;;;34.17;22.50;;;9.60;99.90;;;;;;5056389;28;20548;-55
2024/02/12 04:30:49;;;;;;;28.77;20.03;;;9.60;99.90;;;;;;5055497;28;20448;-55
2024/02/12 04:33:16;;;;;;;31.00;22.27;;;9.60;99.90;;;;;;5056518;28;20817;-55
2024/02/12 04:35:44;;;;;;;29.43;22.60;;;9.60;99.90;;;;;;5054720;28;20441;-55
2024/02/12 04:38:11;;;;;;;35.53;24.00;;;9.60;99.90;;;;;;5055699;28;20465;-55
2024/02/12 04:40:39;;;;;;;34.90;21.70;;;9.70;99.90;;;;;;5054119;28;20445;-55
2024/02/12 04:43:07;;;;;;;33.87;22.87;;;9.70;99.90;;;;;;5053695;28;20441;-55
2024/02/12 04:45:34;;;;;;;32.67;23.30;;;9.70;99.90;;;;;;5053429;28;20477;-55
2024/02/12 04:48:01;;;;;;;32.90;22.20;;;9.70;99.90;;;;;;5053481;28;20469;-55
2024/02/12 04:50:28;;;;;;;33.70;24.47;;;9.70;99.90;;;;;;5053512;28;20441;-55
2024/02/12 04:52:55;;;;;;;40.00;25.30;;;9.70;99.90;;;;;;5053409;28;20886;-55
2024/02/12 04:55:23;;;;;;;36.00;22.47;;;9.70;99.90;;;;;;5053571;28;20433;-55
2024/02/12 04:57:51;;;;;;;31.10;22.53;;;9.60;99.90;;;;;;5053299;28;20501;-55
2024/02/12 05:00:18;;;;;;;35.10;23.17;;;9.60;99.90;;;;;;5053428;28;20445;-55
2024/02/12 05:02:46;;;;;;;36.67;23.70;;;9.70;99.90;;;;;;5053293;28;20448;-55
2024/02/12 05:05:14;;;;;;;33.27;22.20;;;9.60;99.90;;;;;;5053318;28;20450;-55
2024/02/12 05:07:40;;;;;;;29.47;22.57;;;9.70;99.90;;;;;;5052797;28;20987;-55
2024/02/12 05:10:08;;;;;;;36.47;24.37;;;9.70;99.90;;;;;;5053079;28;20438;-55
2024/02/12 05:12:35;;;;;;;30.53;22.17;;;9.70;99.90;;;;;;5053154;28;20451;-55
2024/02/12 05:15:04;;;;;;;32.93;23.90;;;9.70;99.90;;;;;;5052810;28;20943;-55
2024/02/12 05:17:52;;;;;;;35.70;22.77;;;9.70;99.90;;;;;;5053116;28;20821;-55
2024/02/12 05:23:12;;;;;;;32.10;22.87;;;9.60;99.90;;;;;;5028848;28;20422;-55
2024/02/12 05:25:38;;;;;;;30.13;21.73;;;9.60;99.90;;;;;;5052956;28;20503;-55
2024/02/12 05:28:05;;;;;;;30.47;21.57;;;9.70;99.90;;;;;;5055499;28;20469;-55
2024/02/12 05:30:34;;;;;;;36.13;23.10;;;9.70;99.90;;;;;;5057496;28;20442;-55
2024/02/12 05:33:01;;;;;;;35.83;22.80;;;9.70;99.90;;;;;;5058086;28;20461;-55
2024/02/12 05:35:28;;;;;;;39.67;25.30;;;9.70;99.90;;;;;;5057645;28;20816;-55
2024/02/12 05:37:55;;;;;;;27.50;21.40;;;9.60;99.90;;;;;;5057739;28;20470;-55
2024/02/12 05:40:22;;;;;;;30.47;21.50;;;9.60;99.90;;;;;;5057427;28;20536;-55
2024/02/12 05:42:49;;;;;;;37.60;22.17;;;9.60;99.90;;;;;;5057572;28;20449;-54
2024/02/12 05:45:16;;;;;;;32.20;22.50;;;9.60;99.90;;;;;;5057237;28;20445;-55
2024/02/12 05:47:44;;;;;;;36.17;22.50;;;9.60;99.90;;;;;;5057151;28;20511;-55
2024/02/12 05:50:12;;;;;;;29.07;22.07;;;9.60;99.90;;;;;;5056969;28;20452;-55
2024/02/12 05:52:40;;;;;;;34.47;22.80;;;9.60;99.90;;;;;;5056478;28;20955;-55
2024/02/12 05:55:07;;;;;;;30.33;22.40;;;9.60;99.90;;;;;;5056468;28;20514;-55
2024/02/12 05:57:33;;;;;;;38.00;22.23;;;9.60;99.90;;;;;;5057019;28;20468;-55
2024/02/12 06:00:00;;;;;;;32.50;20.37;;;9.60;99.90;;;;;;5056705;28;20536;-55
2024/02/12 06:02:27;;;;;;;33.23;22.00;;;9.50;99.90;;;;;;5056659;28;20441;-56
2024/02/12 06:04:55;;;;;;;35.97;23.10;;;9.50;99.90;;;;;;5056782;28;20449;-55
2024/02/12 06:07:22;;;;;;;35.60;23.77;;;9.50;99.90;;;;;;5056786;28;20568;-55
2024/02/12 06:09:49;;;;;;;35.60;21.57;;;9.50;99.90;;;;;;5056544;28;20446;-55
2024/02/12 06:12:16;;;;;;;33.10;22.07;;;9.50;99.90;;;;;;5055903;28;20499;-55
2024/02/12 06:14:42;;;;;;;35.90;22.50;;;9.40;99.90;;;;;;5056320;28;20790;-55
2024/02/12 06:17:10;;;;;;;31.83;22.10;;;9.40;99.90;;;;;;5056159;28;20461;-55
2024/02/12 06:19:37;;;;;;;36.53;21.07;;;9.30;99.90;;;;;;5056236;28;20453;-55
2024/02/12 06:22:06;;;;;;;38.23;21.87;;;9.30;99.90;;;;;;5055914;28;20824;-55
2024/02/12 06:24:33;;;;;;;29.83;19.80;;;9.30;99.90;;;;;;5056147;28;20437;-55
2024/02/12 06:27:00;;;;;;;37.27;21.73;;;9.30;99.90;;;;;;5055991;28;20489;-55
2024/02/12 06:29:27;;;;;;;32.00;20.47;;;9.30;99.90;;;;;;5055633;28;20452;-55
2024/02/12 06:31:54;;;;;;;33.80;20.63;;;9.30;99.90;;;;;;5055903;28;20472;-55
2024/02/12 06:34:21;;;;;;;31.23;19.60;;;9.30;99.90;;;;;;5055982;28;20447;-55
2024/02/12 06:36:48;;;;;;;29.33;21.23;;;9.40;99.90;;;;;;5055854;28;20496;-55
2024/02/12 06:39:16;;;;;;;28.50;19.70;;;9.40;99.90;;;;;;5055056;28;20453;-55
2024/02/12 06:41:44;;;;;;;29.97;19.97;;;9.50;99.90;;;;;;5055476;28;20936;-55
2024/02/12 06:44:13;;;;;;;31.10;19.40;;;9.50;99.90;;;;;;5055497;28;21018;-55
2024/02/12 06:46:43;;;;;;;28.70;21.07;;;9.50;99.90;;;;;;5055535;28;20485;-55
2024/02/12 06:49:10;;;;;;;27.00;18.50;;;9.60;99.90;;;;;;5055574;28;20446;-55
2024/02/12 06:51:40;;;;;;;26.63;18.23;;;9.60;99.90;;;;;;5055657;28;20451;-55
2024/02/12 06:54:07;;;;;;;32.13;19.70;;;9.60;99.90;;;;;;5055374;28;20457;-55
2024/02/12 06:56:41;;;;;;;31.63;18.47;;;9.60;99.90;;;;;;5055511;28;20488;-55
2024/02/12 06:59:08;;;;;;;29.10;18.40;;;9.60;99.90;;;;;;5055632;28;20430;-55
2024/02/12 07:01:36;;;;;;;26.87;18.77;;;9.60;99.90;;;;;;5055087;28;20453;-55
2024/02/12 07:04:03;;;;;;;26.57;17.13;;;9.60;99.90;;;;;;5055383;28;20445;-55
2024/02/12 07:06:31;;;;;;;22.90;15.40;;;9.70;99.90;;;;;;5055259;28;20489;-55
2024/02/12 07:08:57;;;;;;;28.40;18.33;;;9.70;99.90;;;;;;5055220;28;20527;-55
2024/02/12 07:11:25;;;;;;;26.73;17.20;;;9.70;99.90;;;;;;5055144;28;20448;-55
2024/02/12 07:13:54;;;;;;;25.37;15.80;;;9.70;99.90;;;;;;5054870;28;20931;-55
2024/02/12 07:16:22;;;;;;;27.23;17.50;;;9.70;99.90;;;;;;5055093;28;20446;-56
2024/02/12 07:18:49;;;;;;;25.60;16.93;;;9.70;99.90;;;;;;5054612;28;20983;-54
2024/02/12 07:21:16;;;;;;;27.87;17.90;;;9.70;99.90;;;;;;5055060;28;20449;-55
2024/02/12 07:23:43;;;;;;;28.80;16.20;;;9.80;99.90;;;;;;5055100;28;20472;-55
2024/02/12 07:26:10;;;;;;;25.20;16.57;;;9.70;99.90;;;;;;5054585;28;20473;-55
2024/02/12 07:28:37;;;;;;;28.57;17.73;;;9.70;99.90;;;;;;5054873;28;20838;-55
2024/02/12 07:31:07;;;;;;;28.37;17.63;;;9.70;99.90;;;;;;5054801;28;20449;-55
2024/02/12 07:33:35;;;;;;;27.93;17.73;;;9.70;99.90;;;;;;5054741;28;20450;-55
2024/02/12 07:36:03;;;;;;;27.17;18.43;;;9.60;99.90;;;;;;5054823;28;20445;-55
2024/02/12 07:38:30;;;;;;;32.73;17.00;;;9.70;99.90;;;;;;5054887;28;20498;-55
2024/02/12 07:40:58;;;;;;;31.50;18.40;;;9.60;99.90;;;;;;5054450;28;20446;-56
2024/02/12 07:43:28;;;;;;;29.03;18.20;;;9.60;99.90;;;;;;5054387;28;21019;-56
2024/02/12 07:45:55;;;;;;;30.37;17.83;;;9.60;99.90;;;;;;5054226;28;20525;-55
2024/02/12 07:48:24;;;;;;;29.93;18.20;;;9.60;99.90;;;;;;5054318;28;20507;-56
2024/02/12 07:50:52;;;;;;;28.77;18.30;;;9.60;99.90;;;;;;5054527;28;20476;-56
2024/02/12 07:53:24;;;;;;;28.13;18.77;;;9.50;99.90;;;;;;5053819;28;20511;-56
2024/02/12 07:55:51;;;;;;;27.00;17.90;;;9.50;99.90;;;;;;5054319;28;20496;-56
2024/02/12 07:58:19;;;;;;;30.50;17.57;;;9.60;99.90;;;;;;5054249;28;20464;-56
2024/02/12 08:00:48;;;;;;;27.43;17.97;;;9.60;99.90;;;;;;5054010;28;20964;-56
2024/02/12 08:03:17;;;;;;;29.67;18.43;;;9.60;99.90;;;;;;5054288;28;20456;-55
2024/02/12 08:05:46;;;;;;;28.90;18.80;;;9.60;99.90;;;;;;5053879;28;20441;-55
2024/02/12 08:08:12;;;;;;;28.67;16.20;;;9.60;99.90;;;;;;5054962;28;20485;-55
2024/02/12 08:10:39;;;;;;;29.83;16.73;;;9.60;99.90;;;;;;5053607;28;20990;-55
2024/02/12 08:13:06;;;;;;;23.27;16.63;;;9.70;99.90;;;;;;5054066;28;20438;-56
2024/02/12 08:15:33;;;;;;;27.90;17.07;;;9.70;99.90;;;;;;5054069;28;20448;-55
2024/02/12 08:18:00;;;;;;;25.87;16.50;;;9.70;99.90;;;;;;5053822;28;20984;-56
2024/02/12 08:20:27;;;;;;;24.63;15.90;;;9.80;99.90;;;;;;5054140;28;20438;-56
2024/02/12 08:22:55;;;;;;;23.90;15.63;;;9.90;99.90;;;;;;5054138;28;20536;-56
2024/02/12 08:25:22;;;;;;;22.37;15.13;;;10.00;99.90;;;;;;5053655;28;20449;-55
2024/02/12 08:27:49;;;;;;;22.13;14.60;;;10.00;99.90;;;;;;5053399;28;20481;-56
2024/02/12 08:30:17;;;;;;;23.13;14.40;;;10.00;99.90;;;;;;5053779;28;20441;-55
2024/02/12 08:32:44;;;;;;;23.87;14.13;;;10.10;99.90;;;;;;5053769;28;20838;-55
2024/02/12 08:35:11;;;;;;;23.57;12.93;;;10.10;99.90;;;;;;5053763;28;20484;-56
2024/02/12 08:37:39;;;;;;;17.97;12.30;;;10.10;99.90;;;;;;5053555;28;20935;-56
2024/02/12 08:40:10;;;;;;;20.40;11.83;;;10.10;99.90;;;;;;5053691;28;20485;-56
2024/02/12 08:42:41;;;;;;;17.67;12.40;;;10.10;99.90;;;;;;5053773;28;20508;-56
2024/02/12 08:45:10;;;;;;;21.20;12.00;;;10.10;99.90;;;;;;5053594;28;20877;-55
2024/02/12 08:47:37;;;;;;;22.13;12.57;;;10.10;99.90;;;;;;5053574;28;20497;-55
2024/02/12 08:50:05;;;;;;;15.10;10.80;;;10.10;99.90;;;;;;5054495;28;20448;-56
2024/02/12 08:52:32;;;;;;;17.90;11.07;;;10.20;99.90;;;;;;5054039;28;20528;-56
2024/02/12 08:54:59;;;;;;;16.50;11.77;;;10.10;99.90;;;;;;5053637;28;20453;-56
2024/02/12 08:57:27;;;;;;;17.77;11.00;;;10.20;99.90;;;;;;5053719;28;20492;-55
2024/02/12 08:59:54;;;;;;;17.57;11.30;;;10.20;99.90;;;;;;5053288;28;20812;-55
2024/02/12 09:02:22;;;;;;;15.90;11.90;;;10.20;99.90;;;;;;5053200;28;20515;-56
2024/02/12 09:04:49;;;;;;;16.87;11.70;;;10.20;99.90;;;;;;5053373;28;20441;-55
2024/02/12 09:07:16;;;;;;;19.93;11.07;;;10.20;99.90;;;;;;5053578;28;20493;-55
2024/02/12 09:09:42;;;;;;;14.30;10.40;;;10.10;99.90;;;;;;5053375;28;20514;-56
2024/02/12 09:12:09;;;;;;;16.27;11.13;;;10.10;99.90;;;;;;5053286;28;20460;-56
2024/02/12 09:14:38;;;;;;;20.63;10.57;;;10.10;99.90;;;;;;5053214;28;20466;-56
2024/02/12 09:17:05;;;;;;;16.83;10.70;;;10.20;99.90;;;;;;5053072;28;20829;-55
2024/02/12 09:19:32;;;;;;;18.17;10.27;;;10.20;99.90;;;;;;5053291;28;20452;-56
2024/02/12 09:21:59;;;;;;;16.90;10.33;;;10.30;99.90;;;;;;5053289;28;20495;-55
2024/02/12 09:24:26;;;;;;;24.40;11.40;;;10.30;99.90;;;;;;5053203;28;20437;-55
2024/02/12 09:26:53;;;;;;;13.80;10.07;;;10.20;99.90;;;;;;5052737;28;20456;-55
2024/02/12 09:29:20;;;;;;;18.30;10.33;;;10.10;99.90;;;;;;5053036;28;20442;-55
2024/02/12 09:31:48;;;;;;;22.17;11.00;;;10.10;99.90;;;;;;5052946;28;20452;-55
2024/02/12 09:34:15;;;;;;;15.70;10.33;;;10.10;99.90;;;;;;5052751;28;20441;-55
2024/02/12 09:36:46;;;;;;;15.90;9.57;;;10.10;99.90;;;;;;5052822;28;20449;-55
2024/02/12 09:39:15;;;;;;;16.80;10.13;;;10.10;99.90;;;;;;5052788;28;20947;-55
2024/02/12 09:41:47;;;;;;;16.60;10.77;;;10.10;99.90;;;;;;5052862;28;20450;-55
2024/02/12 09:44:16;;;;;;;17.83;11.10;;;10.10;99.90;;;;;;5052826;28;20520;-55
2024/02/12 09:46:48;;;;;;;15.90;9.70;;;10.30;99.90;;;;;;5053063;28;20441;-55
2024/02/12 09:49:16;;;;;;;13.50;10.00;;;10.40;99.90;;;;;;5052946;28;20483;-55
2024/02/12 09:51:46;;;;;;;19.70;9.93;;;10.60;99.90;;;;;;5058215;28;20451;-54
2024/02/12 09:54:15;;;;;;;14.50;6.80;;;10.90;99.90;;;;;;5072216;28;21009;-54
2024/02/12 09:56:43;;;;;;;11.40;8.20;;;11.10;99.90;;;;;;5072787;28;20879;-55
2024/02/12 09:59:09;;;;;;;9.00;5.47;;;11.30;99.90;;;;;;5072474;28;20962;-55
2024/02/12 10:01:37;;;;;;;9.73;6.63;;;11.50;99.90;;;;;;5072867;28;20440;-55
2024/02/12 10:04:05;;;;;;;10.53;6.80;;;11.50;99.90;;;;;;5072791;28;20452;-55
2024/02/12 10:06:32;;;;;;;12.07;6.93;;;11.50;99.90;;;;;;5072526;28;20452;-55
2024/02/12 10:09:05;;;;;;;10.90;7.40;;;11.40;99.90;;;;;;5072769;28;20484;-55
2024/02/12 10:11:32;;;;;;;10.63;6.90;;;11.40;99.90;;;;;;5072395;28;20427;-55
2024/02/12 10:14:00;;;;;;;13.83;8.37;;;11.30;99.90;;;;;;5073154;28;20441;-55
2024/02/12 10:16:27;;;;;;;13.77;7.00;;;11.30;99.90;;;;;;5076379;28;20444;-55
2024/02/12 10:18:59;;;;;;;10.30;8.00;;;11.30;99.90;;;;;;5075869;28;20813;-55
2024/02/12 10:21:27;;;;;;;10.53;6.97;;;11.40;99.90;;;;;;5076296;28;20420;-55
2024/02/12 10:23:54;;;;;;;12.97;6.87;;;11.40;99.90;;;;;;5075798;28;20931;-55
2024/02/12 10:26:23;;;;;;;13.47;6.70;;;11.50;99.90;;;;;;5076078;28;20535;-55
2024/02/12 10:28:54;;;;;;;9.17;7.40;;;11.50;99.90;;;;;;5075944;28;20484;-55
2024/02/12 10:31:23;;;;;;;10.93;7.27;;;11.70;99.90;;;;;;5076058;28;20482;-55
2024/02/12 10:33:51;;;;;;;10.63;6.80;;;11.70;99.90;;;;;;5075849;28;20539;-55
2024/02/12 10:36:19;;;;;;;11.37;6.43;;;11.80;99.90;;;;;;5075917;28;20444;-55
2024/02/12 10:38:49;;;;;;;7.10;5.50;;;11.80;99.90;;;;;;5075566;28;21017;-55
2024/02/12 10:41:25;;;;;;;11.10;7.23;;;11.80;99.90;;;;;;5075598;28;20441;-55
2024/02/12 10:43:53;;;;;;;9.73;6.90;;;11.80;99.90;;;;;;5075728;28;20429;-55
2024/02/12 10:46:20;;;;;;;11.57;6.40;;;11.80;99.90;;;;;;5076216;28;20441;-55
2024/02/12 10:48:49;;;;;;;9.47;6.70;;;11.90;99.90;;;;;;5075540;28;20484;-55
2024/02/12 10:51:19;;;;;;;7.00;5.43;;;11.90;99.90;;;;;;5075539;28;20475;-55
2024/02/12 10:53:48;;;;;;;6.57;5.40;;;12.10;99.90;;;;;;5062308;28;20520;-54
2024/02/12 10:56:15;;;;;;;11.53;5.50;;;12.20;99.90;;;;;;5055550;28;20792;-55
2024/02/12 10:58:42;;;;;;;11.80;4.83;;;12.20;99.90;;;;;;5055392;28;20462;-55
2024/02/12 11:01:12;;;;;;;8.40;6.10;;;12.30;99.90;;;;;;5055474;28;20446;-54
2024/02/12 11:03:40;;;;;;;7.03;5.40;;;12.30;99.90;;;;;;5055396;28;20513;-55
2024/02/12 11:06:10;;;;;;;10.27;6.07;;;12.30;99.50;;;;;;5055492;28;20446;-55
2024/02/12 11:08:39;;;;;;;9.70;5.70;;;12.30;99.40;;;;;;5055175;28;20492;-55
2024/02/12 11:11:16;;;;;;;11.93;6.67;;;12.30;99.70;;;;;;5055260;28;20529;-55
2024/02/12 11:13:43;;;;;;;8.50;5.37;;;12.30;99.90;;;;;;5054939;28;20779;-55
2024/02/12 11:16:13;;;;;;;7.37;5.27;;;12.30;99.90;;;;;;5055345;28;20442;-54
2024/02/12 11:18:40;;;;;;;5.63;5.00;;;12.30;99.40;;;;;;5054768;28;20993;-55
2024/02/12 11:21:08;;;;;;;7.30;4.37;;;12.30;98.50;;;;;;5055956;28;20450;-55
2024/02/12 11:23:40;;;;;;;10.37;5.40;;;12.30;98.60;;;;;;5055120;28;20478;-55
2024/02/12 11:26:07;;;;;;;8.13;4.03;;;12.40;99.40;;;;;;5054870;28;20444;-55
2024/02/12 11:28:38;;;;;;;9.13;4.63;;;12.50;99.30;;;;;;5055426;28;20493;-55
2024/02/12 11:31:05;;;;;;;4.97;3.27;;;12.60;98.80;;;;;;5055031;28;20799;-55
2024/02/12 11:33:32;;;;;;;4.53;2.80;;;12.70;98.70;;;;;;5054881;28;20446;-55
2024/02/12 11:36:07;;;;;;;6.40;2.70;;;12.70;97.60;;;;;;5054951;28;20454;-55
2024/02/12 11:38:36;;;;;;;10.17;3.40;;;12.60;97.30;;;;;;5054715;28;20457;-55
2024/02/12 11:41:05;;;;;;;3.47;2.63;;;12.60;97.30;;;;;;5054840;28;20445;-55
2024/02/12 11:43:32;;;;;;;6.10;2.67;;;12.60;97.60;;;;;;5054676;28;20445;-55
2024/02/12 11:46:01;;;;;;;6.63;2.70;;;12.70;97.30;;;;;;5054524;28;20445;-55
2024/02/12 11:48:29;;;;;;;8.60;2.83;;;12.80;97.30;;;;;;5054470;28;20537;-56
2024/02/12 11:50:56;;;;;;;7.97;2.80;;;12.90;96.40;;;;;;5054292;28;20452;-56
2024/02/12 11:53:24;;;;;;;6.10;2.50;;;12.90;96.30;;;;;;5054177;28;20465;-56
2024/02/12 11:55:51;;;;;;;6.10;2.67;;;12.90;96.40;;;;;;5054388;28;20453;-56
2024/02/12 11:58:18;;;;;;;7.30;2.63;;;12.90;95.80;;;;;;5055053;28;21029;-56
2024/02/12 12:00:46;;;;;;;7.53;3.07;;;12.80;96.00;;;;;;5054895;28;20540;-56
2024/02/12 12:03:15;;;;;;;9.30;3.07;;;12.80;96.00;;;;;;5055230;28;20882;-56
2024/02/12 12:05:43;;;;;;;8.23;2.97;;;12.80;96.30;;;;;;5055240;28;20441;-56
2024/02/12 12:08:11;;;;;;;8.13;2.90;;;12.70;96.10;;;;;;5054168;28;21076;-56
2024/02/12 12:10:38;;;;;;;8.60;3.00;;;12.80;96.20;;;;;;5054534;28;20445;-56
2024/02/12 12:13:04;;;;;;;5.60;2.50;;;12.80;95.80;;;;;;5054485;28;20529;-55
2024/02/12 12:15:32;;;;;;;8.50;2.97;;;12.60;95.60;;;;;;5054137;28;20446;-56
2024/02/12 12:17:59;;;;;;;4.27;3.10;;;12.50;95.80;;;;;;5053780;28;20468;-55
2024/02/12 12:20:29;;;;;;;5.50;2.60;;;12.50;96.30;;;;;;5054188;28;20457;-56
2024/02/12 12:22:57;;;;;;;12.33;2.37;;;12.50;96.20;;;;;;5054120;28;20480;-55
2024/02/12 12:25:24;;;;;;;9.00;2.83;;;12.50;95.70;;;;;;5053975;28;20464;-55
2024/02/12 12:27:51;;;;;;;5.60;2.40;;;12.60;96.20;;;;;;5053622;28;20467;-55
2024/02/12 12:30:19;;;;;;;6.37;2.07;;;13.10;94.90;;;;;;5053955;28;20446;-56
2024/02/12 12:32:48;;;;;;;2.60;1.70;;;13.70;93.20;;;;;;5055672;28;20449;-55
2024/02/12 12:35:15;;;;;;;6.23;2.47;;;14.40;92.30;;;;;;5073830;28;20473;-55
2024/02/12 12:37:45;;;;;;;4.13;1.63;;;15.10;90.70;;;;;;5073089;28;20467;-56
2024/02/12 12:40:18;;;;;;;3.17;1.70;;;15.40;85.20;;;;;;5073678;28;20445;-56
2024/02/12 12:42:46;;;;;;;6.83;2.43;;;15.70;82.70;;;;;;5073649;28;20425;-56
2024/02/12 12:45:15;;;;;;;6.50;2.07;;;15.70;82.60;;;;;;5073620;28;20444;-56
2024/02/12 12:47:42;;;;;;;12.13;1.97;;;15.50;80.90;;;;;;5073142;28;20479;-56
2024/02/12 12:50:10;;;;;;;5.87;1.77;;;15.40;83.70;;;;;;5073552;28;20468;-56
2024/02/12 12:52:38;;;;;;;4.13;1.77;;;15.40;83.60;;;;;;5073309;28;20447;-56
2024/02/12 12:55:08;;;;;;;2.23;1.20;;;15.40;79.30;;;;;;5066001;28;20452;-55